PWSweather.com
Personal Weather Stations
Station Observations
WISCHPK61
Green Bay Schmitt Park, Green Bay, WI 54311

Green Bay Schmitt ParkGreen Bay, WI 54311

Lat: 44.514277, Lon: -87.935067

Elevation: 735

Station Type: Acu Rite Pro Weather Center model 02032C

http://greenbayweathercam.com

High Low Average
Temperature 79.9°F26.6°C 58.1°F14.5°C 67.7°F19.8°C
Dew Point 79.6°F26.4°C 57.8°F14.3°C 67.4°F19.7°C
Winds 2.3 mph 3.7 kmh Calm Calm Calm SCalm S
Wind Gusts 4.6 mph7.4 kmh -- --
Humidity 99% 99% 99%
Pressure 29.37 in994.6 mb 29.29 in991.9 mb -
Precipitation 0.00 in0.0 mm - -
Hour Temp Dew Point Humidity Winds Wind Gusts Pressure Precip Precip Rate Daily Precip Total
12:00 AM 59.9°F15.5°C 59.6°F15.3°C 99% Calm Calm -- 29.32 in992.9 mb - 0.00 in0.0 mm 0.00 in0.0 mm
01:00 AM 59.4°F15.2°C 59.1°F15.1°C 99% Calm Calm -- 29.33 in993.2 mb - 0.00 in0.0 mm 0.00 in0.0 mm
02:00 AM 59.5°F15.3°C 59.2°F15.1°C 99% Calm Calm -- 29.32 in992.9 mb - 0.00 in0.0 mm 0.00 in0.0 mm
03:00 AM 59.5°F15.3°C 59.2°F15.1°C 99% Calm Calm -- 29.33 in993.2 mb - 0.00 in0.0 mm 0.00 in0.0 mm
04:00 AM 58.8°F14.9°C 58.5°F14.7°C 99% Calm Calm -- 29.33 in993.2 mb - 0.00 in0.0 mm 0.00 in0.0 mm
05:00 AM 58.1°F14.5°C 57.8°F14.3°C 99% Calm Calm -- 29.34 in993.6 mb - 0.00 in0.0 mm 0.00 in0.0 mm
06:00 AM 58.3°F14.6°C 58.0°F14.4°C 99% Calm Calm -- 29.35 in993.9 mb - 0.00 in0.0 mm 0.00 in0.0 mm
07:00 AM 60.8°F16.0°C 60.5°F15.8°C 99% Calm Calm -- 29.36 in994.2 mb - 0.00 in0.0 mm 0.00 in0.0 mm
08:00 AM 63.9°F17.7°C 63.6°F17.6°C 99% Calm Calm -- 29.37 in994.6 mb - 0.00 in0.0 mm 0.00 in0.0 mm
09:00 AM 66.7°F19.3°C 66.4°F19.1°C 99% Calm Calm -- 29.36 in994.2 mb - 0.00 in0.0 mm 0.00 in0.0 mm
10:00 AM 70.9°F21.6°C 70.6°F21.4°C 99% Calm Calm -- 29.36 in994.2 mb - 0.00 in0.0 mm 0.00 in0.0 mm
11:00 AM 72.9°F22.7°C 72.6°F22.6°C 99% 1.2 mph S1.9 kmh S 2.3 mph3.7 kmh 29.35 in993.9 mb - 0.00 in0.0 mm 0.00 in0.0 mm
12:00 PM 77.2°F25.1°C 76.9°F24.9°C 99% Calm Calm -- 29.35 in993.9 mb - 0.00 in0.0 mm 0.00 in0.0 mm
01:00 PM 79.2°F26.2°C 78.9°F26.1°C 99% 2.3 mph SE3.7 kmh SE 4.6 mph7.4 kmh 29.34 in993.6 mb - 0.00 in0.0 mm 0.00 in0.0 mm
02:00 PM 79.9°F26.6°C 79.6°F26.4°C 99% Calm Calm -- 29.33 in993.2 mb - 0.00 in0.0 mm 0.00 in0.0 mm
03:00 PM 77.9°F25.5°C 77.6°F25.3°C 99% Calm Calm -- 29.33 in993.2 mb - 0.00 in0.0 mm 0.00 in0.0 mm
04:00 PM 77.0°F25.0°C 76.7°F24.8°C 99% Calm Calm -- 29.31 in992.6 mb - 0.00 in0.0 mm 0.00 in0.0 mm
05:00 PM 74.8°F23.8°C 74.5°F23.6°C 99% Calm Calm -- 29.31 in992.6 mb - 0.00 in0.0 mm 0.00 in0.0 mm
06:00 PM 72.6°F22.6°C 72.3°F22.4°C 99% 1.2 mph NE1.9 kmh NE 1.2 mph1.9 kmh 29.30 in992.2 mb - 0.00 in0.0 mm 0.00 in0.0 mm
07:00 PM 69.6°F20.9°C 69.3°F20.7°C 99% Calm Calm -- 29.29 in991.9 mb - 0.00 in0.0 mm 0.00 in0.0 mm
08:00 PM 68.0°F20.0°C 67.7°F19.8°C 99% Calm Calm -- 29.30 in992.2 mb - 0.00 in0.0 mm 0.00 in0.0 mm
09:00 PM 66.9°F19.4°C 66.6°F19.2°C 99% Calm Calm -- 29.31 in992.6 mb - 0.00 in0.0 mm 0.00 in0.0 mm
10:00 PM 66.9°F19.4°C 66.6°F19.2°C 99% Calm Calm -- 29.31 in992.6 mb - 0.00 in0.0 mm 0.00 in0.0 mm
11:00 PM 66.9°F19.4°C 66.6°F19.2°C 99% 1.2 mph SSE1.9 kmh SSE 1.2 mph1.9 kmh 29.29 in991.9 mb - 0.00 in0.0 mm 0.00 in0.0 mm